createdAt,value
2022-12-20T00:01:43.120Z,6.30
2022-12-20T00:04:13.711Z,6.27
2022-12-20T00:06:42.495Z,6.20
2022-12-20T00:09:13.318Z,6.63
2022-12-20T00:11:42.893Z,6.40
2022-12-20T00:14:11.863Z,6.33
2022-12-20T00:16:40.297Z,5.97
2022-12-20T00:19:09.210Z,5.83
2022-12-20T00:21:38.187Z,6.57
2022-12-20T00:24:07.729Z,6.30
2022-12-20T00:26:38.573Z,5.93
2022-12-20T00:29:07.796Z,6.07
2022-12-20T00:31:36.565Z,5.90
2022-12-20T00:34:05.320Z,5.70
2022-12-20T00:36:34.536Z,6.30
2022-12-20T00:39:03.897Z,6.03
2022-12-20T00:41:34.270Z,6.43
2022-12-20T00:44:05.542Z,6.10
2022-12-20T00:46:35.609Z,6.87
2022-12-20T00:49:04.051Z,6.07
2022-12-20T00:51:33.711Z,6.60
2022-12-20T00:54:02.164Z,6.57
2022-12-20T00:56:30.454Z,6.00
2022-12-20T00:59:00.707Z,6.67
2022-12-20T01:01:32.639Z,5.87
2022-12-20T01:04:01.594Z,6.20
2022-12-20T01:06:31.780Z,6.70
2022-12-20T01:09:00.501Z,6.47
2022-12-20T01:11:32.050Z,6.10
2022-12-20T01:14:03.261Z,7.00
2022-12-20T01:16:36.211Z,6.20
2022-12-20T01:19:06.309Z,6.53
2022-12-20T01:21:35.148Z,6.30
2022-12-20T01:24:03.466Z,6.87
2022-12-20T01:26:31.997Z,6.57
2022-12-20T01:29:01.468Z,6.50
2022-12-20T01:31:30.858Z,6.43
2022-12-20T01:34:02.687Z,6.97
2022-12-20T01:36:33.176Z,6.47
2022-12-20T01:39:04.472Z,6.67
2022-12-20T01:41:34.333Z,6.70
2022-12-20T01:44:04.027Z,6.33
2022-12-20T01:46:33.785Z,7.00
2022-12-20T01:49:08.196Z,6.70
2022-12-20T01:51:41.984Z,6.97
2022-12-20T01:54:15.580Z,6.77
2022-12-20T01:56:46.847Z,6.27
2022-12-20T01:59:15.819Z,7.33
2022-12-20T02:01:44.801Z,6.33
2022-12-20T02:04:14.709Z,7.00
2022-12-20T02:06:43.170Z,6.97
2022-12-20T02:09:11.555Z,6.97
2022-12-20T02:11:53.078Z,7.00
2022-12-20T02:14:41.807Z,6.67
2022-12-20T02:17:16.453Z,6.87
2022-12-20T02:20:18.774Z,6.40
2022-12-20T02:23:02.703Z,6.40
2022-12-20T02:25:47.498Z,6.80
2022-12-20T02:28:32.870Z,5.80
2022-12-20T02:31:08.795Z,6.20
2022-12-20T02:33:37.171Z,6.30
2022-12-20T02:36:06.044Z,6.50
2022-12-20T02:38:36.304Z,6.37
2022-12-20T02:41:08.679Z,6.10
2022-12-20T02:43:57.435Z,6.03
2022-12-20T02:46:28.516Z,6.40
2022-12-20T02:49:01.052Z,6.23
2022-12-20T02:51:31.333Z,6.63
2022-12-20T02:54:01.414Z,6.27
2022-12-20T02:56:36.656Z,6.60
2022-12-20T02:59:10.476Z,6.33
2022-12-20T03:01:45.998Z,6.50
2022-12-20T03:04:15.581Z,6.80
2022-12-20T03:06:58.340Z,6.30
2022-12-20T03:09:26.753Z,7.17
2022-12-20T03:11:56.679Z,6.33
2022-12-20T03:14:26.285Z,6.57
2022-12-20T03:16:58.665Z,6.43
2022-12-20T03:19:27.796Z,6.40
2022-12-20T03:21:56.762Z,6.27
2022-12-20T03:24:25.172Z,6.07
2022-12-20T03:26:54.912Z,6.20
2022-12-20T03:29:25.614Z,5.80
2022-12-20T03:31:54.170Z,6.30
2022-12-20T03:34:23.905Z,5.67
2022-12-20T03:36:52.417Z,5.70
2022-12-20T03:39:20.800Z,5.37
2022-12-20T03:41:52.472Z,5.17
2022-12-20T03:44:21.034Z,5.23
2022-12-20T03:46:50.815Z,5.47
2022-12-20T03:49:19.200Z,5.50
2022-12-20T03:51:52.821Z,5.20
2022-12-20T03:54:21.193Z,5.03
2022-12-20T03:57:09.873Z,4.80
2022-12-20T03:59:38.452Z,4.63
2022-12-20T04:02:10.121Z,4.40
2022-12-20T04:04:38.769Z,4.10
2022-12-20T04:07:09.404Z,4.47
2022-12-20T04:09:40.168Z,4.07
2022-12-20T04:12:14.347Z,4.67
2022-12-20T04:14:42.920Z,4.37
2022-12-20T04:17:13.477Z,4.17
2022-12-20T04:19:42.740Z,4.10
2022-12-20T04:22:12.476Z,3.70
2022-12-20T04:24:52.654Z,3.87
2022-12-20T04:27:26.334Z,3.60
2022-12-20T04:29:56.988Z,3.70
2022-12-20T04:32:25.545Z,4.13
2022-12-20T04:34:53.974Z,3.93
2022-12-20T04:37:23.832Z,4.30
2022-12-20T04:39:55.498Z,3.97
2022-12-20T04:42:35.816Z,4.07
2022-12-20T04:45:04.387Z,4.30
2022-12-20T04:47:33.160Z,4.23
2022-12-20T04:50:01.585Z,4.97
2022-12-20T04:52:49.550Z,4.63
2022-12-20T04:55:18.292Z,4.43
2022-12-20T04:57:47.110Z,4.50
2022-12-20T05:00:17.182Z,5.30
2022-12-20T05:02:49.689Z,4.57
2022-12-20T05:05:20.773Z,4.97
2022-12-20T05:07:54.856Z,4.73
2022-12-20T05:10:23.956Z,4.60
2022-12-20T05:12:54.032Z,4.80
2022-12-20T05:15:35.348Z,4.50
2022-12-20T05:18:05.137Z,4.53
2022-12-20T05:20:46.755Z,4.30
2022-12-20T05:23:33.836Z,4.90
2022-12-20T05:26:21.275Z,4.70
2022-12-20T05:28:52.710Z,4.97
2022-12-20T05:31:22.099Z,4.40
2022-12-20T05:33:50.553Z,4.47
2022-12-20T05:36:19.261Z,4.73
2022-12-20T05:38:51.223Z,5.13
2022-12-20T05:41:21.340Z,5.13
2022-12-20T05:43:53.775Z,4.63
2022-12-20T05:46:22.355Z,4.90
2022-12-20T05:48:55.888Z,4.90
2022-12-20T05:51:24.803Z,5.03
2022-12-20T05:54:04.103Z,4.83
2022-12-20T05:56:46.399Z,5.10
2022-12-20T05:59:14.821Z,4.60
2022-12-20T06:01:44.388Z,4.70
2022-12-20T06:04:13.190Z,4.60
2022-12-20T06:06:42.520Z,4.70
2022-12-20T06:09:13.241Z,4.40
2022-12-20T06:11:47.638Z,4.23
2022-12-20T06:14:16.561Z,4.50
2022-12-20T06:16:48.417Z,4.43
2022-12-20T06:19:21.691Z,4.10
2022-12-20T06:21:52.486Z,4.27
2022-12-20T06:24:30.187Z,4.93
2022-12-20T06:26:58.610Z,4.10
2022-12-20T06:29:28.090Z,4.50
2022-12-20T06:32:05.333Z,4.77
2022-12-20T06:34:33.888Z,4.50
2022-12-20T06:37:03.114Z,4.37
2022-12-20T06:39:36.116Z,4.60
2022-12-20T06:42:06.946Z,4.47
2022-12-20T06:44:37.025Z,4.30
2022-12-20T06:47:05.476Z,4.80
2022-12-20T06:49:33.865Z,4.50
2022-12-20T06:52:06.709Z,4.60
2022-12-20T06:54:48.927Z,4.60
2022-12-20T06:57:17.304Z,4.23
2022-12-20T06:59:48.678Z,3.87
2022-12-20T07:02:17.610Z,4.03
2022-12-20T07:04:46.010Z,3.90
2022-12-20T07:07:14.860Z,4.43
2022-12-20T07:09:43.097Z,3.97
2022-12-20T07:12:14.237Z,4.30
2022-12-20T07:14:42.553Z,3.60
2022-12-20T07:17:11.258Z,3.50
2022-12-20T07:19:41.313Z,3.70
2022-12-20T07:22:13.965Z,3.50
2022-12-20T07:24:42.218Z,3.80
2022-12-20T07:27:13.115Z,3.50
2022-12-20T07:29:42.160Z,4.00
2022-12-20T07:32:10.973Z,3.73
2022-12-20T07:34:39.556Z,3.93
2022-12-20T07:37:08.607Z,3.77
2022-12-20T07:39:36.924Z,3.33
2022-12-20T07:42:05.780Z,3.53
2022-12-20T07:44:44.858Z,3.70
2022-12-20T07:47:13.136Z,3.90
2022-12-20T07:49:41.600Z,4.20
2022-12-20T07:52:12.245Z,4.30
2022-12-20T07:54:45.941Z,4.37
2022-12-20T07:57:17.518Z,4.27
2022-12-20T07:59:52.348Z,5.30
2022-12-20T08:02:25.441Z,4.90
2022-12-20T08:04:55.231Z,5.10
2022-12-20T08:07:24.050Z,5.00
2022-12-20T08:09:52.586Z,5.57
2022-12-20T08:12:22.614Z,5.93
2022-12-20T08:14:56.203Z,5.90
2022-12-20T08:17:24.897Z,6.00
2022-12-20T08:19:53.231Z,5.90
2022-12-20T08:22:22.935Z,6.43
2022-12-20T08:24:51.275Z,6.27
2022-12-20T08:27:19.622Z,6.03
2022-12-20T08:29:47.962Z,5.80
2022-12-20T08:32:17.783Z,6.60
2022-12-20T08:34:46.067Z,5.90
2022-12-20T08:37:15.135Z,7.43
2022-12-20T08:39:44.440Z,6.63
2022-12-20T08:42:13.061Z,5.90
2022-12-20T08:44:41.401Z,7.20
2022-12-20T08:47:10.349Z,7.00
2022-12-20T08:49:45.716Z,6.63
2022-12-20T08:52:15.823Z,7.20
2022-12-20T08:54:44.087Z,6.73
2022-12-20T08:57:12.448Z,7.30
2022-12-20T08:59:40.808Z,8.10
2022-12-20T09:02:09.374Z,8.80
2022-12-20T09:04:39.176Z,8.90
2022-12-20T09:07:07.573Z,8.47
2022-12-20T09:09:35.971Z,8.60
2022-12-20T09:12:04.546Z,8.13
2022-12-20T09:14:32.832Z,8.67
2022-12-20T09:17:01.100Z,8.83
2022-12-20T09:19:29.413Z,8.73
2022-12-20T09:21:59.146Z,9.47
2022-12-20T09:24:27.410Z,8.73
2022-12-20T09:26:55.637Z,8.97
2022-12-20T09:29:29.525Z,8.77
2022-12-20T09:32:02.868Z,8.43
2022-12-20T09:34:31.432Z,9.37
2022-12-20T09:37:01.089Z,9.77
2022-12-20T09:39:29.411Z,9.03
2022-12-20T09:41:58.778Z,8.70
2022-12-20T09:44:29.805Z,8.77
2022-12-20T09:47:08.145Z,9.63
2022-12-20T09:49:43.679Z,8.97
2022-12-20T09:52:25.403Z,8.90
2022-12-20T09:55:01.616Z,8.93
2022-12-20T09:57:39.259Z,8.77
2022-12-20T10:00:15.187Z,8.90
2022-12-20T10:03:00.195Z,9.27
2022-12-20T10:05:41.459Z,8.63
2022-12-20T10:08:23.272Z,9.10
2022-12-20T10:10:57.300Z,8.83
2022-12-20T10:13:37.025Z,8.70
2022-12-20T10:16:18.747Z,8.13
2022-12-20T10:18:59.082Z,8.57
2022-12-20T10:21:40.313Z,7.30
2022-12-20T10:24:14.494Z,7.33
2022-12-20T10:26:43.274Z,7.47
2022-12-20T10:29:11.546Z,8.03
2022-12-20T10:31:40.558Z,6.87
2022-12-20T10:34:09.059Z,8.17
2022-12-20T10:36:38.462Z,7.53
2022-12-20T10:39:09.124Z,6.20
2022-12-20T10:41:52.061Z,6.90
2022-12-20T10:44:26.467Z,6.70
2022-12-20T10:46:56.931Z,6.10
2022-12-20T10:49:33.779Z,6.20
2022-12-20T10:52:04.483Z,6.73
2022-12-20T11:10:31.151Z,6.57
2022-12-20T11:13:01.182Z,5.97
2022-12-20T11:15:34.664Z,6.50
2022-12-20T11:18:09.803Z,5.80
2022-12-20T11:20:42.424Z,7.07
2022-12-20T11:23:23.861Z,7.07
2022-12-20T11:26:16.410Z,7.03
2022-12-20T11:28:58.881Z,6.40
2022-12-20T11:31:38.039Z,7.43
2022-12-20T11:34:19.972Z,7.27
2022-12-20T11:37:05.673Z,7.00
2022-12-20T11:39:40.992Z,7.20
2022-12-20T11:42:18.717Z,7.13
2022-12-20T11:45:08.526Z,6.97
2022-12-20T11:47:59.375Z,7.07
2022-12-20T11:55:29.832Z,7.10
2022-12-20T11:58:20.576Z,6.57
2022-12-20T14:07:28.064Z,2.40
2022-12-20T14:09:59.322Z,3.07
2022-12-20T14:12:34.433Z,2.50
2022-12-20T14:15:23.097Z,2.60
2022-12-20T14:17:51.485Z,2.90
2022-12-20T14:20:24.362Z,2.20
2022-12-20T14:23:04.625Z,2.47
2022-12-20T14:25:42.373Z,2.20
2022-12-20T14:28:26.461Z,1.90
2022-12-20T14:31:10.403Z,1.80
2022-12-20T14:33:40.393Z,1.90
2022-12-20T14:36:20.199Z,2.07
2022-12-20T14:38:51.462Z,1.80
2022-12-20T14:41:45.960Z,2.07
2022-12-20T14:44:18.628Z,2.23
2022-12-20T14:46:51.537Z,2.23
2022-12-20T14:49:24.790Z,2.10
2022-12-20T14:52:05.216Z,2.30
2022-12-20T14:57:26.709Z,2.47
2022-12-20T15:00:01.033Z,2.30
2022-12-20T15:02:40.558Z,3.00
2022-12-20T15:05:28.133Z,2.70
2022-12-20T15:07:56.445Z,2.80
2022-12-20T15:10:26.269Z,2.80
2022-12-20T15:12:54.673Z,2.70
2022-12-20T15:15:29.233Z,3.70
2022-12-20T15:17:57.872Z,4.70
2022-12-20T15:20:26.117Z,3.47
2022-12-20T15:22:54.468Z,2.83
2022-12-20T15:25:22.720Z,3.10
2022-12-20T15:27:52.437Z,2.70
2022-12-20T15:30:20.969Z,3.00
2022-12-20T15:32:55.600Z,3.30
2022-12-20T15:35:25.704Z,3.53
2022-12-20T15:37:54.099Z,3.30
2022-12-20T15:40:22.347Z,2.87
2022-12-20T15:42:52.811Z,3.67
2022-12-20T15:45:21.667Z,3.90
2022-12-20T15:47:50.059Z,4.27
2022-12-20T15:50:18.329Z,3.53
2022-12-20T15:52:46.656Z,3.70
2022-12-20T15:55:15.012Z,3.80
2022-12-20T15:57:43.354Z,3.37
2022-12-20T16:00:13.981Z,3.63
2022-12-20T16:02:42.546Z,2.90
2022-12-20T16:05:13.706Z,3.00
2022-12-20T16:07:42.222Z,2.90
2022-12-20T16:10:14.395Z,3.50
2022-12-20T16:12:43.591Z,4.03
2022-12-20T16:15:28.130Z,3.87
2022-12-20T16:17:56.473Z,4.00
2022-12-20T16:20:24.744Z,3.93
2022-12-20T16:22:53.007Z,3.77
2022-12-20T16:25:29.478Z,3.63
2022-12-20T16:27:57.856Z,3.80
2022-12-20T16:30:28.023Z,3.53
2022-12-20T16:32:58.779Z,5.83
2022-12-20T16:35:30.001Z,5.53
2022-12-20T16:37:59.897Z,4.63
2022-12-20T16:40:30.024Z,8.17
2022-12-20T16:42:59.558Z,14.63
2022-12-20T16:45:31.787Z,17.40
2022-12-20T16:48:00.117Z,16.73
2022-12-20T16:50:28.920Z,14.27
2022-12-20T16:52:57.273Z,9.90
2022-12-20T16:55:27.166Z,10.67
2022-12-20T16:57:55.592Z,9.30
2022-12-20T17:00:25.724Z,8.50
2022-12-20T17:02:56.148Z,11.63
2022-12-20T17:05:30.743Z,9.30
2022-12-20T17:07:59.345Z,10.27
2022-12-20T17:10:28.332Z,8.30
2022-12-20T17:12:57.267Z,7.23
2022-12-20T17:15:27.756Z,7.20
2022-12-20T17:17:58.274Z,8.27
2022-12-20T17:20:30.035Z,8.40
2022-12-20T17:25:52.086Z,8.23
2022-12-20T17:28:23.479Z,8.03
2022-12-20T17:30:51.781Z,8.30
2022-12-20T17:33:21.464Z,8.07
2022-12-20T17:35:49.819Z,7.13
2022-12-20T17:38:18.174Z,6.97
2022-12-20T17:40:46.500Z,6.53
2022-12-20T17:43:14.805Z,6.53
2022-12-20T17:45:43.374Z,5.77
2022-12-20T17:48:12.428Z,6.00
2022-12-20T17:50:42.142Z,6.20
2022-12-20T17:53:10.788Z,6.70
2022-12-20T17:55:39.035Z,9.23
2022-12-20T17:58:07.913Z,10.53
2022-12-20T18:00:39.390Z,12.67
2022-12-20T18:03:08.293Z,10.30
2022-12-20T18:05:42.585Z,7.73
2022-12-20T18:08:10.921Z,7.10
2022-12-20T18:10:39.153Z,6.07
2022-12-20T18:13:07.572Z,6.03
2022-12-20T18:15:35.860Z,6.30
2022-12-20T18:18:04.303Z,7.00
2022-12-20T18:20:32.545Z,7.73
2022-12-20T18:23:02.267Z,6.93
2022-12-20T18:25:30.543Z,6.83
2022-12-20T18:27:58.824Z,7.20
2022-12-20T18:30:27.177Z,8.50
2022-12-20T18:32:55.435Z,9.13
2022-12-20T18:35:23.856Z,11.63
2022-12-20T18:37:52.203Z,12.47
2022-12-20T18:40:21.976Z,13.60
2022-12-20T18:42:54.521Z,14.17
2022-12-20T18:45:22.809Z,16.33
2022-12-20T18:47:51.219Z,18.33
2022-12-20T18:50:19.599Z,17.33
2022-12-20T18:52:47.971Z,20.00
2022-12-20T18:55:16.381Z,19.97
2022-12-20T18:57:46.095Z,18.13
2022-12-20T19:00:15.790Z,15.93
2022-12-20T19:03:02.221Z,14.80
2022-12-20T19:05:33.890Z,14.30
2022-12-20T19:08:02.320Z,13.03
2022-12-20T19:10:33.132Z,13.40
2022-12-20T19:13:05.995Z,15.57
2022-12-20T19:15:34.705Z,16.20
2022-12-20T19:18:03.001Z,16.23
2022-12-20T19:20:31.308Z,17.90
2022-12-20T19:22:59.611Z,16.57
2022-12-20T19:25:28.015Z,18.10
2022-12-20T19:27:56.502Z,16.53
2022-12-20T19:30:27.791Z,16.83
2022-12-20T19:32:56.395Z,17.53
2022-12-20T19:35:54.052Z,17.53
2022-12-20T19:38:13.372Z,17.20
2022-12-20T19:40:42.214Z,16.60
2022-12-20T19:43:10.595Z,18.73
2022-12-20T19:45:40.330Z,17.83
2022-12-20T19:48:09.259Z,16.87
2022-12-20T19:50:37.582Z,17.37
2022-12-20T19:53:06.072Z,18.10
2022-12-20T19:55:34.365Z,18.67
2022-12-20T19:58:02.691Z,18.77
2022-12-20T20:00:30.987Z,17.43
2022-12-20T20:03:01.066Z,19.73
2022-12-20T20:05:30.394Z,20.47
2022-12-20T20:07:58.746Z,21.57
2022-12-20T20:10:27.661Z,19.47
2022-12-20T20:12:55.917Z,18.77
2022-12-20T20:15:24.265Z,17.70
2022-12-20T20:17:52.984Z,17.60
2022-12-20T20:20:23.480Z,17.57
2022-12-20T20:22:51.921Z,18.43
2022-12-20T20:25:20.490Z,15.70
2022-12-20T20:27:48.812Z,14.77
2022-12-20T20:30:17.663Z,15.30
2022-12-20T20:32:46.161Z,14.17
2022-12-20T20:35:14.494Z,14.63
2022-12-20T20:37:44.165Z,12.57
2022-12-20T20:40:14.173Z,12.63
2022-12-20T20:42:42.554Z,13.10
2022-12-20T20:45:11.786Z,11.80
2022-12-20T20:47:40.111Z,12.40
2022-12-20T20:50:10.180Z,14.77
2022-12-20T20:52:38.529Z,14.17
2022-12-20T20:55:09.864Z,13.87
2022-12-20T20:57:38.236Z,14.10
2022-12-20T21:00:08.548Z,14.37
2022-12-20T21:02:37.118Z,14.53
2022-12-20T21:05:59.804Z,15.93
2022-12-20T21:07:54.591Z,15.63
2022-12-20T21:10:24.322Z,17.17
2022-12-20T21:12:52.717Z,15.40
2022-12-20T21:15:24.663Z,14.17
2022-12-20T21:17:53.231Z,12.80
2022-12-20T21:20:25.895Z,12.27
2022-12-20T21:23:09.591Z,11.30
2022-12-20T21:25:39.330Z,11.43
2022-12-20T21:28:07.841Z,10.20
2022-12-20T21:30:36.556Z,11.47
2022-12-20T21:33:04.993Z,11.33
2022-12-20T21:35:33.286Z,10.73
2022-12-20T21:38:01.811Z,13.93
2022-12-20T21:40:30.053Z,13.30
2022-12-20T21:43:00.224Z,12.37
2022-12-20T21:45:28.552Z,14.33
2022-12-20T21:48:02.726Z,11.20
2022-12-20T21:50:45.418Z,12.13
2022-12-20T21:53:19.235Z,11.17
2022-12-20T21:55:47.974Z,10.33
2022-12-20T21:58:17.637Z,10.37
2022-12-20T22:03:28.205Z,11.57
2022-12-20T22:05:57.053Z,10.70
2022-12-20T22:08:27.830Z,9.83
2022-12-20T22:11:00.315Z,14.33
2022-12-20T22:13:34.362Z,10.00
2022-12-20T22:16:08.134Z,9.30
2022-12-20T22:18:37.064Z,8.33
2022-12-20T22:21:05.908Z,8.83
2022-12-20T22:23:34.342Z,9.03
2022-12-20T22:26:03.657Z,8.33
2022-12-20T22:28:33.534Z,7.97
2022-12-20T22:31:01.984Z,9.10
2022-12-20T22:33:30.202Z,8.10
2022-12-20T22:36:00.753Z,7.53
2022-12-20T22:38:29.223Z,7.80
2022-12-20T22:41:06.737Z,7.83
2022-12-20T22:43:51.358Z,16.63
2022-12-20T22:46:19.922Z,10.40
2022-12-20T22:48:48.526Z,10.23
2022-12-20T22:51:19.184Z,9.03
2022-12-20T22:53:48.587Z,7.50
2022-12-20T22:56:18.386Z,7.73
2022-12-20T22:58:48.498Z,10.10
2022-12-20T23:01:18.420Z,7.83
2022-12-20T23:03:47.460Z,7.83
2022-12-20T23:06:20.016Z,7.47
2022-12-20T23:08:49.148Z,7.80
2022-12-20T23:11:37.341Z,7.80
2022-12-20T23:14:25.113Z,8.70
2022-12-20T23:16:53.523Z,8.10
2022-12-20T23:19:21.882Z,7.83
2022-12-20T23:22:07.752Z,8.33
2022-12-20T23:24:36.287Z,7.60
2022-12-20T23:27:05.075Z,8.00
2022-12-20T23:29:34.914Z,7.43
2022-12-20T23:32:03.190Z,7.63
2022-12-20T23:34:31.469Z,7.40
2022-12-20T23:36:59.775Z,12.47
2022-12-20T23:39:28.044Z,8.60
2022-12-20T23:41:56.302Z,8.40
2022-12-20T23:44:24.727Z,7.80
2022-12-20T23:46:54.348Z,8.30
2022-12-20T23:49:22.618Z,8.07
2022-12-20T23:51:50.896Z,8.30
2022-12-20T23:54:21.393Z,8.10
2022-12-20T23:56:50.045Z,7.47
2022-12-20T23:59:18.388Z,8.07
